sensor_id;sensor_type;location;lat;lon;timestamp;P1;durP1;ratioP1;P2;durP2;ratioP2
64018;SDS011;66942;52.138;5.216;2023-05-07T00:00:57;29.5;;;27.2;;
64018;SDS011;66942;52.138;5.216;2023-05-07T00:04:10;29.9;;;27.5;;
64018;SDS011;66942;52.138;5.216;2023-05-07T00:05:46;29.7;;;27.4;;
64018;SDS011;66942;52.138;5.216;2023-05-07T00:07:22;27.8;;;25.8;;
64018;SDS011;66942;52.138;5.216;2023-05-07T00:10:35;28.6;;;26.4;;
64018;SDS011;66942;52.138;5.216;2023-05-07T00:12:11;28.9;;;26.7;;
64018;SDS011;66942;52.138;5.216;2023-05-07T00:13:47;29.9;;;27.3;;
64018;SDS011;66942;52.138;5.216;2023-05-07T00:17:01;26.6;;;24.6;;
64018;SDS011;66942;52.138;5.216;2023-05-07T00:18:38;24.3;;;22.6;;
64018;SDS011;66942;52.138;5.216;2023-05-07T00:20:15;23.3;;;21.7;;
64018;SDS011;66942;52.138;5.216;2023-05-07T00:23:27;23.2;;;21.6;;
64018;SDS011;66942;52.138;5.216;2023-05-07T00:25:03;22.2;;;20.6;;
64018;SDS011;66942;52.138;5.216;2023-05-07T00:26:40;21.6;;;20.11;;
64018;SDS011;66942;52.138;5.216;2023-05-07T00:28:17;22.3;;;20.7;;
64018;SDS011;66942;52.138;5.216;2023-05-07T00:31:32;23.4;;;21.8;;
64018;SDS011;66942;52.138;5.216;2023-05-07T00:33:08;22.8;;;21.2;;
64018;SDS011;66942;52.138;5.216;2023-05-07T00:34:44;20.2;;;18.8;;
64018;SDS011;66942;52.138;5.216;2023-05-07T00:37:57;20.11;;;18.7;;
64018;SDS011;66942;52.138;5.216;2023-05-07T00:39:33;20.9;;;19.41;;
64018;SDS011;66942;52.138;5.216;2023-05-07T00:41:10;20.0;;;18.7;;
64018;SDS011;66942;52.138;5.216;2023-05-07T00:42:47;20.3;;;18.8;;
64018;SDS011;66942;52.138;5.216;2023-05-07T00:46:00;19.41;;;18.0;;
64018;SDS011;66942;52.138;5.216;2023-05-07T00:47:37;20.41;;;19.11;;
64018;SDS011;66942;52.138;5.216;2023-05-07T00:49:14;18.0;;;16.8;;
64018;SDS011;66942;52.138;5.216;2023-05-07T00:52:28;18.0;;;16.9;;
64018;SDS011;66942;52.138;5.216;2023-05-07T00:54:05;18.8;;;17.5;;
64018;SDS011;66942;52.138;5.216;2023-05-07T00:55:43;19.91;;;18.5;;
64018;SDS011;66942;52.138;5.216;2023-05-07T00:58:57;19.41;;;18.11;;
64018;SDS011;66942;52.138;5.216;2023-05-07T01:00:33;18.61;;;17.41;;
64018;SDS011;66942;52.138;5.216;2023-05-07T01:02:09;19.3;;;17.91;;
64018;SDS011;66942;52.138;5.216;2023-05-07T01:03:46;18.0;;;16.7;;
64018;SDS011;66942;52.138;5.216;2023-05-07T01:07:02;18.8;;;17.61;;
64018;SDS011;66942;52.138;5.216;2023-05-07T01:08:39;18.8;;;17.5;;
64018;SDS011;66942;52.138;5.216;2023-05-07T01:10:17;16.7;;;15.7;;
64018;SDS011;66942;52.138;5.216;2023-05-07T01:13:32;16.5;;;15.5;;
64018;SDS011;66942;52.138;5.216;2023-05-07T01:15:10;15.6;;;14.6;;
64018;SDS011;66942;52.138;5.216;2023-05-07T01:16:47;16.2;;;15.2;;
64018;SDS011;66942;52.138;5.216;2023-05-07T01:18:24;16.2;;;15.2;;
64018;SDS011;66942;52.138;5.216;2023-05-07T01:21:40;15.4;;;14.6;;
64018;SDS011;66942;52.138;5.216;2023-05-07T01:23:22;15.0;;;14.2;;
64018;SDS011;66942;52.138;5.216;2023-05-07T01:24:59;16.11;;;15.2;;
64018;SDS011;66942;52.138;5.216;2023-05-07T01:28:13;18.11;;;17.0;;
64018;SDS011;66942;52.138;5.216;2023-05-07T01:29:49;18.91;;;17.61;;
64018;SDS011;66942;52.138;5.216;2023-05-07T01:31:26;17.7;;;16.61;;
64018;SDS011;66942;52.138;5.216;2023-05-07T01:33:03;18.0;;;16.9;;
64018;SDS011;66942;52.138;5.216;2023-05-07T01:36:24;18.0;;;16.7;;
64018;SDS011;66942;52.138;5.216;2023-05-07T01:38:02;16.9;;;15.8;;
64018;SDS011;66942;52.138;5.216;2023-05-07T01:39:39;17.2;;;16.11;;
64018;SDS011;66942;52.138;5.216;2023-05-07T01:42:54;16.61;;;15.7;;
64018;SDS011;66942;52.138;5.216;2023-05-07T01:44:30;17.11;;;16.11;;
64018;SDS011;66942;52.138;5.216;2023-05-07T01:46:06;18.3;;;17.0;;
64018;SDS011;66942;52.138;5.216;2023-05-07T01:47:44;18.0;;;16.8;;
64018;SDS011;66942;52.138;5.216;2023-05-07T01:50:56;15.5;;;14.5;;
64018;SDS011;66942;52.138;5.216;2023-05-07T01:52:34;15.1;;;14.2;;
64018;SDS011;66942;52.138;5.216;2023-05-07T01:54:11;17.11;;;16.0;;
64018;SDS011;66942;52.138;5.216;2023-05-07T01:57:24;17.7;;;16.61;;
64018;SDS011;66942;52.138;5.216;2023-05-07T01:59:00;16.3;;;15.4;;
64018;SDS011;66942;52.138;5.216;2023-05-07T02:00:36;16.11;;;15.1;;
64018;SDS011;66942;52.138;5.216;2023-05-07T02:03:49;16.61;;;15.7;;
64018;SDS011;66942;52.138;5.216;2023-05-07T02:05:25;15.3;;;14.4;;
64018;SDS011;66942;52.138;5.216;2023-05-07T02:07:02;18.41;;;17.2;;
64018;SDS011;66942;52.138;5.216;2023-05-07T02:08:38;15.7;;;14.8;;
64018;SDS011;66942;52.138;5.216;2023-05-07T02:11:50;16.0;;;15.1;;
64018;SDS011;66942;52.138;5.216;2023-05-07T02:13:28;14.6;;;13.8;;
64018;SDS011;66942;52.138;5.216;2023-05-07T02:15:05;16.3;;;15.3;;
64018;SDS011;66942;52.138;5.216;2023-05-07T02:18:18;14.6;;;13.5;;
64018;SDS011;66942;52.138;5.216;2023-05-07T02:19:55;17.11;;;16.0;;
64018;SDS011;66942;52.138;5.216;2023-05-07T02:21:31;14.6;;;13.7;;
64018;SDS011;66942;52.138;5.216;2023-05-07T02:24:44;15.3;;;14.5;;
64018;SDS011;66942;52.138;5.216;2023-05-07T02:26:20;15.4;;;14.6;;
64018;SDS011;66942;52.138;5.216;2023-05-07T02:27:56;16.2;;;15.1;;
64018;SDS011;66942;52.138;5.216;2023-05-07T02:29:32;13.8;;;12.9;;
64018;SDS011;66942;52.138;5.216;2023-05-07T02:32:45;14.1;;;13.3;;
64018;SDS011;66942;52.138;5.216;2023-05-07T02:34:21;15.4;;;14.4;;
64018;SDS011;66942;52.138;5.216;2023-05-07T02:35:57;14.2;;;13.3;;
64018;SDS011;66942;52.138;5.216;2023-05-07T02:39:17;14.8;;;13.8;;
64018;SDS011;66942;52.138;5.216;2023-05-07T02:40:53;14.1;;;13.3;;
64018;SDS011;66942;52.138;5.216;2023-05-07T02:42:30;13.8;;;13.0;;
64018;SDS011;66942;52.138;5.216;2023-05-07T02:45:44;14.4;;;13.5;;
64018;SDS011;66942;52.138;5.216;2023-05-07T02:47:20;13.2;;;12.5;;
64018;SDS011;66942;52.138;5.216;2023-05-07T02:48:56;14.7;;;13.8;;
64018;SDS011;66942;52.138;5.216;2023-05-07T02:50:32;13.4;;;12.6;;
64018;SDS011;66942;52.138;5.216;2023-05-07T02:53:44;15.8;;;14.8;;
64018;SDS011;66942;52.138;5.216;2023-05-07T02:55:21;14.7;;;13.8;;
64018;SDS011;66942;52.138;5.216;2023-05-07T02:56:57;14.1;;;13.3;;
64018;SDS011;66942;52.138;5.216;2023-05-07T03:00:10;15.3;;;14.4;;
64018;SDS011;66942;52.138;5.216;2023-05-07T03:01:47;15.1;;;14.1;;
64018;SDS011;66942;52.138;5.216;2023-05-07T03:03:24;15.2;;;14.4;;
64018;SDS011;66942;52.138;5.216;2023-05-07T03:06:36;17.0;;;16.11;;
64018;SDS011;66942;52.138;5.216;2023-05-07T03:08:12;16.7;;;15.7;;
64018;SDS011;66942;52.138;5.216;2023-05-07T03:09:48;14.6;;;13.8;;
64018;SDS011;66942;52.138;5.216;2023-05-07T03:11:24;15.1;;;14.2;;
64018;SDS011;66942;52.138;5.216;2023-05-07T03:14:38;17.61;;;16.5;;
64018;SDS011;66942;52.138;5.216;2023-05-07T03:16:14;15.3;;;14.4;;
64018;SDS011;66942;52.138;5.216;2023-05-07T03:17:51;14.9;;;14.1;;
64018;SDS011;66942;52.138;5.216;2023-05-07T03:21:03;15.6;;;14.6;;
64018;SDS011;66942;52.138;5.216;2023-05-07T03:22:39;15.9;;;14.8;;
64018;SDS011;66942;52.138;5.216;2023-05-07T03:24:16;14.5;;;13.7;;
64018;SDS011;66942;52.138;5.216;2023-05-07T03:27:29;14.2;;;13.4;;
64018;SDS011;66942;52.138;5.216;2023-05-07T03:29:05;15.1;;;14.3;;
64018;SDS011;66942;52.138;5.216;2023-05-07T03:30:41;15.8;;;14.8;;
64018;SDS011;66942;52.138;5.216;2023-05-07T03:32:17;15.5;;;14.6;;
64018;SDS011;66942;52.138;5.216;2023-05-07T03:35:31;15.5;;;14.6;;
64018;SDS011;66942;52.138;5.216;2023-05-07T03:37:08;16.0;;;15.0;;
64018;SDS011;66942;52.138;5.216;2023-05-07T03:38:45;19.3;;;18.11;;
64018;SDS011;66942;52.138;5.216;2023-05-07T03:41:57;17.2;;;16.2;;
64018;SDS011;66942;52.138;5.216;2023-05-07T03:43:34;17.8;;;16.7;;
64018;SDS011;66942;52.138;5.216;2023-05-07T03:45:10;16.11;;;15.2;;
64018;SDS011;66942;52.138;5.216;2023-05-07T03:48:23;16.0;;;15.0;;
64018;SDS011;66942;52.138;5.216;2023-05-07T03:49:59;15.9;;;15.0;;
64018;SDS011;66942;52.138;5.216;2023-05-07T03:51:35;15.9;;;15.0;;
64018;SDS011;66942;52.138;5.216;2023-05-07T03:53:12;18.11;;;17.0;;
64018;SDS011;66942;52.138;5.216;2023-05-07T03:56:24;18.7;;;17.5;;
64018;SDS011;66942;52.138;5.216;2023-05-07T03:58:00;17.0;;;15.9;;
64018;SDS011;66942;52.138;5.216;2023-05-07T03:59:36;18.3;;;17.2;;
64018;SDS011;66942;52.138;5.216;2023-05-07T04:02:49;21.7;;;20.2;;
64018;SDS011;66942;52.138;5.216;2023-05-07T04:04:25;21.9;;;20.5;;
64018;SDS011;66942;52.138;5.216;2023-05-07T04:06:01;21.5;;;20.0;;
64018;SDS011;66942;52.138;5.216;2023-05-07T04:09:14;18.61;;;17.41;;
64018;SDS011;66942;52.138;5.216;2023-05-07T04:10:54;18.11;;;17.2;;
64018;SDS011;66942;52.138;5.216;2023-05-07T04:12:30;18.0;;;17.0;;
64018;SDS011;66942;52.138;5.216;2023-05-07T04:14:07;21.3;;;19.91;;
64018;SDS011;66942;52.138;5.216;2023-05-07T04:17:19;19.0;;;17.8;;
64018;SDS011;66942;52.138;5.216;2023-05-07T04:18:55;20.2;;;18.91;;
64018;SDS011;66942;52.138;5.216;2023-05-07T04:20:33;18.91;;;17.8;;
64018;SDS011;66942;52.138;5.216;2023-05-07T04:23:48;19.61;;;18.3;;
64018;SDS011;66942;52.138;5.216;2023-05-07T04:25:25;21.5;;;20.2;;
64018;SDS011;66942;52.138;5.216;2023-05-07T04:27:01;22.4;;;21.0;;
64018;SDS011;66942;52.138;5.216;2023-05-07T04:30:14;20.6;;;19.3;;
64018;SDS011;66942;52.138;5.216;2023-05-07T04:31:50;21.1;;;19.8;;
64018;SDS011;66942;52.138;5.216;2023-05-07T04:33:26;22.6;;;21.2;;
64018;SDS011;66942;52.138;5.216;2023-05-07T04:35:02;20.0;;;18.61;;
64018;SDS011;66942;52.138;5.216;2023-05-07T04:38:17;24.1;;;22.4;;
64018;SDS011;66942;52.138;5.216;2023-05-07T04:39:53;23.8;;;22.0;;
64018;SDS011;66942;52.138;5.216;2023-05-07T04:41:29;22.9;;;21.3;;
64018;SDS011;66942;52.138;5.216;2023-05-07T04:44:41;21.6;;;20.3;;
64018;SDS011;66942;52.138;5.216;2023-05-07T04:46:19;22.7;;;21.3;;
64018;SDS011;66942;52.138;5.216;2023-05-07T04:47:55;24.9;;;23.2;;
64018;SDS011;66942;52.138;5.216;2023-05-07T04:51:08;24.7;;;23.0;;
64018;SDS011;66942;52.138;5.216;2023-05-07T04:52:44;24.0;;;22.5;;
64018;SDS011;66942;52.138;5.216;2023-05-07T04:54:20;24.7;;;23.1;;
64018;SDS011;66942;52.138;5.216;2023-05-07T04:55:56;26.1;;;24.2;;
64018;SDS011;66942;52.138;5.216;2023-05-07T04:59:09;23.2;;;21.8;;
64018;SDS011;66942;52.138;5.216;2023-05-07T05:00:46;23.8;;;22.3;;
64018;SDS011;66942;52.138;5.216;2023-05-07T05:02:22;23.0;;;21.6;;
64018;SDS011;66942;52.138;5.216;2023-05-07T05:05:34;24.1;;;22.6;;
64018;SDS011;66942;52.138;5.216;2023-05-07T05:07:10;24.7;;;23.0;;
64018;SDS011;66942;52.138;5.216;2023-05-07T05:08:46;25.3;;;23.5;;
64018;SDS011;66942;52.138;5.216;2023-05-07T05:11:58;25.9;;;24.1;;
64018;SDS011;66942;52.138;5.216;2023-05-07T05:13:35;25.2;;;23.5;;
64018;SDS011;66942;52.138;5.216;2023-05-07T05:15:11;27.1;;;25.3;;
64018;SDS011;66942;52.138;5.216;2023-05-07T05:18:24;26.5;;;24.6;;
64018;SDS011;66942;52.138;5.216;2023-05-07T05:20:00;25.1;;;23.5;;
64018;SDS011;66942;52.138;5.216;2023-05-07T05:21:36;26.3;;;24.5;;
64018;SDS011;66942;52.138;5.216;2023-05-07T05:23:12;23.7;;;22.1;;
64018;SDS011;66942;52.138;5.216;2023-05-07T05:26:25;23.6;;;22.1;;
64018;SDS011;66942;52.138;5.216;2023-05-07T05:28:01;24.7;;;23.1;;
64018;SDS011;66942;52.138;5.216;2023-05-07T05:29:37;23.4;;;21.8;;
64018;SDS011;66942;52.138;5.216;2023-05-07T05:32:49;25.1;;;23.3;;
64018;SDS011;66942;52.138;5.216;2023-05-07T05:34:25;23.8;;;22.3;;
64018;SDS011;66942;52.138;5.216;2023-05-07T05:36:02;24.0;;;22.4;;
64018;SDS011;66942;52.138;5.216;2023-05-07T05:39:15;23.3;;;21.7;;
64018;SDS011;66942;52.138;5.216;2023-05-07T05:40:53;23.9;;;22.3;;
64018;SDS011;66942;52.138;5.216;2023-05-07T05:42:29;24.9;;;23.2;;
64018;SDS011;66942;52.138;5.216;2023-05-07T05:44:06;23.1;;;21.4;;
64018;SDS011;66942;52.138;5.216;2023-05-07T05:47:18;22.6;;;21.1;;
64018;SDS011;66942;52.138;5.216;2023-05-07T05:48:54;22.0;;;20.5;;
64018;SDS011;66942;52.138;5.216;2023-05-07T05:50:30;22.1;;;20.6;;
64018;SDS011;66942;52.138;5.216;2023-05-07T05:53:42;22.8;;;21.2;;
64018;SDS011;66942;52.138;5.216;2023-05-07T05:55:19;22.0;;;20.5;;
64018;SDS011;66942;52.138;5.216;2023-05-07T05:56:56;21.4;;;19.91;;
64018;SDS011;66942;52.138;5.216;2023-05-07T06:00:09;23.4;;;21.7;;
64018;SDS011;66942;52.138;5.216;2023-05-07T06:01:46;20.6;;;19.2;;
64018;SDS011;66942;52.138;5.216;2023-05-07T06:03:22;22.2;;;20.6;;
64018;SDS011;66942;52.138;5.216;2023-05-07T06:04:58;21.8;;;20.41;;
64018;SDS011;66942;52.138;5.216;2023-05-07T06:08:11;22.1;;;20.6;;
64018;SDS011;66942;52.138;5.216;2023-05-07T06:09:46;23.4;;;21.5;;
64018;SDS011;66942;52.138;5.216;2023-05-07T06:11:23;21.6;;;20.0;;
64018;SDS011;66942;52.138;5.216;2023-05-07T06:14:35;22.8;;;21.2;;
64018;SDS011;66942;52.138;5.216;2023-05-07T06:16:11;22.6;;;20.9;;
64018;SDS011;66942;52.138;5.216;2023-05-07T06:17:48;24.0;;;22.1;;
64018;SDS011;66942;52.138;5.216;2023-05-07T06:21:01;22.4;;;20.8;;
64018;SDS011;66942;52.138;5.216;2023-05-07T06:22:38;23.4;;;21.6;;
64018;SDS011;66942;52.138;5.216;2023-05-07T06:24:14;23.9;;;22.1;;
64018;SDS011;66942;52.138;5.216;2023-05-07T06:27:27;22.2;;;20.7;;
64018;SDS011;66942;52.138;5.216;2023-05-07T06:29:04;21.8;;;20.3;;
64018;SDS011;66942;52.138;5.216;2023-05-07T06:30:40;21.4;;;19.91;;
64018;SDS011;66942;52.138;5.216;2023-05-07T06:32:16;21.8;;;20.2;;
64018;SDS011;66942;52.138;5.216;2023-05-07T06:35:30;21.8;;;20.2;;
64018;SDS011;66942;52.138;5.216;2023-05-07T06:37:07;21.2;;;19.7;;
64018;SDS011;66942;52.138;5.216;2023-05-07T06:38:43;21.0;;;19.7;;
64018;SDS011;66942;52.138;5.216;2023-05-07T06:41:55;22.3;;;20.8;;
64018;SDS011;66942;52.138;5.216;2023-05-07T06:43:32;21.9;;;20.41;;
64018;SDS011;66942;52.138;5.216;2023-05-07T06:45:09;23.0;;;21.4;;
64018;SDS011;66942;52.138;5.216;2023-05-07T06:48:21;22.7;;;21.2;;
64018;SDS011;66942;52.138;5.216;2023-05-07T06:49:58;21.9;;;20.41;;
64018;SDS011;66942;52.138;5.216;2023-05-07T06:51:34;22.0;;;20.5;;
64018;SDS011;66942;52.138;5.216;2023-05-07T06:53:10;20.11;;;18.91;;
64018;SDS011;66942;52.138;5.216;2023-05-07T06:56:22;22.4;;;20.8;;
64018;SDS011;66942;52.138;5.216;2023-05-07T06:57:58;21.9;;;20.5;;
64018;SDS011;66942;52.138;5.216;2023-05-07T06:59:36;21.9;;;20.5;;
64018;SDS011;66942;52.138;5.216;2023-05-07T07:02:48;22.8;;;21.3;;
64018;SDS011;66942;52.138;5.216;2023-05-07T07:04:23;22.1;;;20.6;;
64018;SDS011;66942;52.138;5.216;2023-05-07T07:06:00;22.2;;;20.6;;
64018;SDS011;66942;52.138;5.216;2023-05-07T07:09:12;22.4;;;20.8;;
64018;SDS011;66942;52.138;5.216;2023-05-07T07:10:49;22.0;;;20.3;;
64018;SDS011;66942;52.138;5.216;2023-05-07T07:12:25;21.7;;;20.11;;
64018;SDS011;66942;52.138;5.216;2023-05-07T07:14:01;22.2;;;20.6;;
64018;SDS011;66942;52.138;5.216;2023-05-07T07:17:13;22.5;;;20.9;;
64018;SDS011;66942;52.138;5.216;2023-05-07T07:18:50;21.7;;;20.3;;
64018;SDS011;66942;52.138;5.216;2023-05-07T07:20:27;21.6;;;20.3;;
64018;SDS011;66942;52.138;5.216;2023-05-07T07:23:39;21.8;;;20.3;;
64018;SDS011;66942;52.138;5.216;2023-05-07T07:25:15;22.1;;;20.6;;
64018;SDS011;66942;52.138;5.216;2023-05-07T07:26:52;22.8;;;21.3;;
64018;SDS011;66942;52.138;5.216;2023-05-07T07:30:06;22.6;;;21.0;;
64018;SDS011;66942;52.138;5.216;2023-05-07T07:31:43;22.6;;;21.0;;
64018;SDS011;66942;52.138;5.216;2023-05-07T07:33:19;21.1;;;19.7;;
64018;SDS011;66942;52.138;5.216;2023-05-07T07:34:55;20.7;;;19.0;;
64018;SDS011;66942;52.138;5.216;2023-05-07T07:38:07;21.9;;;20.41;;
64018;SDS011;66942;52.138;5.216;2023-05-07T07:39:43;21.3;;;19.8;;
64018;SDS011;66942;52.138;5.216;2023-05-07T07:41:20;20.7;;;19.2;;
64018;SDS011;66942;52.138;5.216;2023-05-07T07:44:33;21.4;;;20.11;;
64018;SDS011;66942;52.138;5.216;2023-05-07T07:46:10;20.2;;;18.8;;
64018;SDS011;66942;52.138;5.216;2023-05-07T07:47:48;19.7;;;18.3;;
64018;SDS011;66942;52.138;5.216;2023-05-07T07:51:00;19.61;;;18.2;;
64018;SDS011;66942;52.138;5.216;2023-05-07T07:52:37;20.11;;;18.7;;
64018;SDS011;66942;52.138;5.216;2023-05-07T07:54:14;18.91;;;17.7;;
64018;SDS011;66942;52.138;5.216;2023-05-07T07:57:26;19.2;;;18.0;;
64018;SDS011;66942;52.138;5.216;2023-05-07T07:59:03;18.8;;;17.7;;
64018;SDS011;66942;52.138;5.216;2023-05-07T08:00:39;18.61;;;17.3;;
64018;SDS011;66942;52.138;5.216;2023-05-07T08:02:15;19.2;;;17.91;;
64018;SDS011;66942;52.138;5.216;2023-05-07T08:05:29;19.2;;;18.0;;
64018;SDS011;66942;52.138;5.216;2023-05-07T08:07:06;19.11;;;17.8;;
64018;SDS011;66942;52.138;5.216;2023-05-07T08:08:42;20.2;;;18.91;;
64018;SDS011;66942;52.138;5.216;2023-05-07T08:11:56;18.5;;;17.3;;
64018;SDS011;66942;52.138;5.216;2023-05-07T08:13:33;19.2;;;17.91;;
64018;SDS011;66942;52.138;5.216;2023-05-07T08:15:10;20.41;;;19.11;;
64018;SDS011;66942;52.138;5.216;2023-05-07T08:16:46;20.9;;;19.5;;
64018;SDS011;66942;52.138;5.216;2023-05-07T08:20:01;19.91;;;18.61;;
64018;SDS011;66942;52.138;5.216;2023-05-07T08:21:38;20.6;;;19.3;;
64018;SDS011;66942;52.138;5.216;2023-05-07T08:23:15;20.41;;;19.11;;
64018;SDS011;66942;52.138;5.216;2023-05-07T08:26:27;24.3;;;22.6;;
64018;SDS011;66942;52.138;5.216;2023-05-07T08:28:04;24.3;;;22.6;;
64018;SDS011;66942;52.138;5.216;2023-05-07T08:29:41;21.5;;;20.11;;
64018;SDS011;66942;52.138;5.216;2023-05-07T08:32:53;21.4;;;20.11;;
64018;SDS011;66942;52.138;5.216;2023-05-07T08:34:29;20.5;;;19.2;;
64018;SDS011;66942;52.138;5.216;2023-05-07T08:36:05;21.9;;;20.5;;
64018;SDS011;66942;52.138;5.216;2023-05-07T08:37:41;21.7;;;20.3;;
64018;SDS011;66942;52.138;5.216;2023-05-07T08:40:55;21.1;;;19.7;;
64018;SDS011;66942;52.138;5.216;2023-05-07T08:42:32;21.4;;;20.0;;
64018;SDS011;66942;52.138;5.216;2023-05-07T08:44:11;21.4;;;20.11;;
64018;SDS011;66942;52.138;5.216;2023-05-07T08:47:32;22.8;;;21.2;;
64018;SDS011;66942;52.138;5.216;2023-05-07T08:49:15;21.6;;;20.2;;
64018;SDS011;66942;52.138;5.216;2023-05-07T08:50:52;22.7;;;21.1;;
64018;SDS011;66942;52.138;5.216;2023-05-07T08:52:29;20.9;;;19.41;;
64018;SDS011;66942;52.138;5.216;2023-05-07T08:55:43;21.8;;;20.5;;
64018;SDS011;66942;52.138;5.216;2023-05-07T08:57:21;21.1;;;19.8;;
64018;SDS011;66942;52.138;5.216;2023-05-07T08:58:57;20.41;;;19.2;;
64018;SDS011;66942;52.138;5.216;2023-05-07T09:02:13;20.8;;;19.3;;
64018;SDS011;66942;52.138;5.216;2023-05-07T09:03:49;21.4;;;19.91;;
64018;SDS011;66942;52.138;5.216;2023-05-07T09:05:28;20.0;;;18.7;;
64018;SDS011;66942;52.138;5.216;2023-05-07T09:07:04;20.0;;;18.7;;
64018;SDS011;66942;52.138;5.216;2023-05-07T09:10:25;18.7;;;17.61;;
64018;SDS011;66942;52.138;5.216;2023-05-07T09:12:02;19.7;;;18.41;;
64018;SDS011;66942;52.138;5.216;2023-05-07T09:13:39;18.41;;;17.2;;
64018;SDS011;66942;52.138;5.216;2023-05-07T09:16:51;19.91;;;18.5;;
64018;SDS011;66942;52.138;5.216;2023-05-07T09:18:28;18.7;;;17.5;;
64018;SDS011;66942;52.138;5.216;2023-05-07T09:20:05;17.8;;;16.7;;
64018;SDS011;66942;52.138;5.216;2023-05-07T09:21:42;18.3;;;17.11;;
64018;SDS011;66942;52.138;5.216;2023-05-07T09:24:57;18.5;;;17.3;;
64018;SDS011;66942;52.138;5.216;2023-05-07T09:26:33;17.8;;;16.5;;
64018;SDS011;66942;52.138;5.216;2023-05-07T09:28:10;19.0;;;17.91;;
64018;SDS011;66942;52.138;5.216;2023-05-07T09:31:23;17.91;;;16.7;;
64018;SDS011;66942;52.138;5.216;2023-05-07T09:33:00;18.11;;;17.0;;
64018;SDS011;66942;52.138;5.216;2023-05-07T09:34:40;17.8;;;16.7;;
64018;SDS011;66942;52.138;5.216;2023-05-07T09:36:17;15.9;;;15.0;;
64018;SDS011;66942;52.138;5.216;2023-05-07T09:39:41;16.3;;;15.3;;
64018;SDS011;66942;52.138;5.216;2023-05-07T09:41:19;17.41;;;16.4;;
64018;SDS011;66942;52.138;5.216;2023-05-07T09:42:55;17.5;;;16.4;;
64018;SDS011;66942;52.138;5.216;2023-05-07T09:46:12;18.11;;;16.9;;
64018;SDS011;66942;52.138;5.216;2023-05-07T09:47:50;17.2;;;16.11;;
64018;SDS011;66942;52.138;5.216;2023-05-07T09:49:33;17.61;;;16.5;;
64018;SDS011;66942;52.138;5.216;2023-05-07T09:51:14;18.8;;;17.61;;
64018;SDS011;66942;52.138;5.216;2023-05-07T09:53:05;19.61;;;18.2;;
64018;SDS011;66942;52.138;5.216;2023-05-07T09:56:22;17.2;;;16.2;;
64018;SDS011;66942;52.138;5.216;2023-05-07T09:58:00;18.0;;;16.8;;
64018;SDS011;66942;52.138;5.216;2023-05-07T09:59:40;19.11;;;17.8;;
64018;SDS011;66942;52.138;5.216;2023-05-07T10:02:57;17.5;;;16.4;;
64018;SDS011;66942;52.138;5.216;2023-05-07T10:04:35;17.7;;;16.61;;
64018;SDS011;66942;52.138;5.216;2023-05-07T10:06:12;17.2;;;16.11;;
64018;SDS011;66942;52.138;5.216;2023-05-07T10:07:50;15.6;;;14.6;;
64018;SDS011;66942;52.138;5.216;2023-05-07T10:11:06;14.8;;;13.9;;
64018;SDS011;66942;52.138;5.216;2023-05-07T10:12:42;14.1;;;13.1;;
64018;SDS011;66942;52.138;5.216;2023-05-07T10:14:19;13.4;;;12.6;;
64018;SDS011;66942;52.138;5.216;2023-05-07T10:19:11;12.1;;;11.3;;
64018;SDS011;66942;52.138;5.216;2023-05-07T10:20:48;10.7;;;10.0;;
64018;SDS011;66942;52.138;5.216;2023-05-07T10:22:28;7.8;;;7.3;;
64018;SDS011;66942;52.138;5.216;2023-05-07T10:25:55;8.4;;;7.8;;
64018;SDS011;66942;52.138;5.216;2023-05-07T10:27:33;6.3;;;5.9;;
64018;SDS011;66942;52.138;5.216;2023-05-07T10:29:12;6.0;;;5.6;;
64018;SDS011;66942;52.138;5.216;2023-05-07T10:31:05;6.2;;;5.8;;
64018;SDS011;66942;52.138;5.216;2023-05-07T10:33:01;5.8;;;5.4;;
64018;SDS011;66942;52.138;5.216;2023-05-07T10:36:21;5.0;;;4.61;;
64018;SDS011;66942;52.138;5.216;2023-05-07T10:37:59;6.3;;;5.8;;
64018;SDS011;66942;52.138;5.216;2023-05-07T10:39:35;5.6;;;5.3;;
64018;SDS011;66942;52.138;5.216;2023-05-07T10:41:12;5.2;;;4.8;;
64018;SDS011;66942;52.138;5.216;2023-05-07T10:44:30;5.4;;;5.11;;
64018;SDS011;66942;52.138;5.216;2023-05-07T10:46:10;5.3;;;4.91;;
64018;SDS011;66942;52.138;5.216;2023-05-07T10:48:05;6.4;;;5.8;;
64018;SDS011;66942;52.138;5.216;2023-05-07T10:50:51;5.8;;;5.4;;
64018;SDS011;66942;52.138;5.216;2023-05-07T10:53:26;7.6;;;6.9;;
64018;SDS011;66942;52.138;5.216;2023-05-07T10:55:32;8.31;;;7.7;;
64018;SDS011;66942;52.138;5.216;2023-05-07T10:57:41;8.1;;;7.5;;
64018;SDS011;66942;52.138;5.216;2023-05-07T10:59:30;9.21;;;8.5;;
64018;SDS011;66942;52.138;5.216;2023-05-07T11:01:10;9.31;;;8.6;;
64018;SDS011;66942;52.138;5.216;2023-05-07T11:03:18;8.81;;;8.0;;
64018;SDS011;66942;52.138;5.216;2023-05-07T11:05:18;9.5;;;8.71;;
64018;SDS011;66942;52.138;5.216;2023-05-07T11:07:23;7.2;;;6.7;;
64018;SDS011;66942;52.138;5.216;2023-05-07T11:09:05;6.0;;;5.6;;
64018;SDS011;66942;52.138;5.216;2023-05-07T11:10:57;7.3;;;6.8;;
64018;SDS011;66942;52.138;5.216;2023-05-07T11:13:07;7.9;;;7.2;;
64018;SDS011;66942;52.138;5.216;2023-05-07T11:14:44;7.5;;;6.9;;
64018;SDS011;66942;52.138;5.216;2023-05-07T11:18:00;6.8;;;6.3;;
64018;SDS011;66942;52.138;5.216;2023-05-07T11:19:52;6.6;;;6.1;;
64018;SDS011;66942;52.138;5.216;2023-05-07T11:21:32;6.4;;;5.9;;
64018;SDS011;66942;52.138;5.216;2023-05-07T11:23:54;6.3;;;5.8;;
64018;SDS011;66942;52.138;5.216;2023-05-07T11:25:35;6.0;;;5.4;;
64018;SDS011;66942;52.138;5.216;2023-05-07T11:27:12;6.2;;;5.7;;
64018;SDS011;66942;52.138;5.216;2023-05-07T11:30:27;5.2;;;4.8;;
64018;SDS011;66942;52.138;5.216;2023-05-07T11:32:04;5.5;;;5.11;;
64018;SDS011;66942;52.138;5.216;2023-05-07T11:33:41;6.5;;;6.0;;
64018;SDS011;66942;52.138;5.216;2023-05-07T11:36:59;6.5;;;5.7;;
64018;SDS011;66942;52.138;5.216;2023-05-07T11:38:36;5.7;;;5.3;;
64018;SDS011;66942;52.138;5.216;2023-05-07T11:40:14;5.8;;;5.4;;
64018;SDS011;66942;52.138;5.216;2023-05-07T11:41:50;5.9;;;5.4;;
64018;SDS011;66942;52.138;5.216;2023-05-07T11:45:04;5.8;;;5.3;;
64018;SDS011;66942;52.138;5.216;2023-05-07T11:46:43;6.8;;;6.3;;
64018;SDS011;66942;52.138;5.216;2023-05-07T11:48:20;7.3;;;6.7;;
64018;SDS011;66942;52.138;5.216;2023-05-07T11:51:41;7.3;;;6.9;;
64018;SDS011;66942;52.138;5.216;2023-05-07T11:53:18;7.5;;;7.0;;
64018;SDS011;66942;52.138;5.216;2023-05-07T11:54:56;9.6;;;9.0;;
64018;SDS011;66942;52.138;5.216;2023-05-07T11:56:34;8.31;;;7.7;;
64018;SDS011;66942;52.138;5.216;2023-05-07T11:59:56;7.0;;;6.5;;
64018;SDS011;66942;52.138;5.216;2023-05-07T12:01:35;8.0;;;7.4;;
64018;SDS011;66942;52.138;5.216;2023-05-07T12:03:11;8.81;;;8.2;;
64018;SDS011;66942;52.138;5.216;2023-05-07T12:06:23;7.6;;;7.1;;
64018;SDS011;66942;52.138;5.216;2023-05-07T12:08:00;8.9;;;8.2;;
64018;SDS011;66942;52.138;5.216;2023-05-07T12:09:36;8.2;;;7.5;;
64018;SDS011;66942;52.138;5.216;2023-05-07T12:11:13;6.1;;;5.5;;
64018;SDS011;66942;52.138;5.216;2023-05-07T12:14:28;8.31;;;7.6;;
64018;SDS011;66942;52.138;5.216;2023-05-07T12:16:04;9.6;;;9.0;;
64018;SDS011;66942;52.138;5.216;2023-05-07T12:17:42;7.1;;;6.6;;
64018;SDS011;66942;52.138;5.216;2023-05-07T12:20:56;8.31;;;7.5;;
64018;SDS011;66942;52.138;5.216;2023-05-07T12:22:34;8.0;;;7.3;;
64018;SDS011;66942;52.138;5.216;2023-05-07T12:24:11;7.3;;;6.7;;
64018;SDS011;66942;52.138;5.216;2023-05-07T12:25:49;7.8;;;7.2;;
64018;SDS011;66942;52.138;5.216;2023-05-07T12:29:03;6.3;;;5.8;;
64018;SDS011;66942;52.138;5.216;2023-05-07T12:30:40;6.8;;;6.3;;
64018;SDS011;66942;52.138;5.216;2023-05-07T12:32:20;8.1;;;7.5;;
64018;SDS011;66942;52.138;5.216;2023-05-07T12:35:36;7.7;;;7.1;;
64018;SDS011;66942;52.138;5.216;2023-05-07T12:37:16;8.1;;;7.5;;
64018;SDS011;66942;52.138;5.216;2023-05-07T12:38:53;7.9;;;7.3;;